sensor_id;sensor_type;location;lat;lon;timestamp;temperature;humidity
63966;DHT22;50151;52.030;5.350;2023-06-10T08:32:01;24.80;99.90
63966;DHT22;50151;52.030;5.350;2023-06-10T08:34:28;24.90;99.90
63966;DHT22;50151;52.030;5.350;2023-06-10T08:36:55;24.90;99.90
63966;DHT22;50151;52.030;5.350;2023-06-10T08:39:22;24.90;99.90
63966;DHT22;50151;52.030;5.350;2023-06-10T08:44:42;25.10;99.90
63966;DHT22;50151;52.030;5.350;2023-06-10T08:47:16;25.30;99.90
63966;DHT22;50151;52.030;5.350;2023-06-10T08:49:47;25.40;99.90
63966;DHT22;50151;52.030;5.350;2023-06-10T08:52:18;25.40;99.90
63966;DHT22;50151;52.030;5.350;2023-06-10T08:54:57;25.60;99.90
63966;DHT22;50151;52.030;5.350;2023-06-10T08:57:26;25.60;99.90
63966;DHT22;50151;52.030;5.350;2023-06-10T08:59:56;25.70;99.90
63966;DHT22;50151;52.030;5.350;2023-06-10T09:02:23;25.90;99.90
63966;DHT22;50151;52.030;5.350;2023-06-10T09:04:51;26.00;99.90
63966;DHT22;50151;52.030;5.350;2023-06-10T09:07:20;26.10;99.90
63966;DHT22;50151;52.030;5.350;2023-06-10T09:09:49;26.10;99.90
63966;DHT22;50151;52.030;5.350;2023-06-10T09:12:16;26.10;99.90
63966;DHT22;50151;52.030;5.350;2023-06-10T09:14:42;26.20;99.90
63966;DHT22;50151;52.030;5.350;2023-06-10T09:17:10;26.40;99.90
63966;DHT22;50151;52.030;5.350;2023-06-10T09:19:38;26.50;99.90
63966;DHT22;50151;52.030;5.350;2023-06-10T09:22:05;26.70;99.90
63966;DHT22;50151;52.030;5.350;2023-06-10T09:24:33;26.60;99.90
63966;DHT22;50151;52.030;5.350;2023-06-10T09:27:06;26.60;99.90
63966;DHT22;50151;52.030;5.350;2023-06-10T09:29:53;26.60;99.90
63966;DHT22;50151;52.030;5.350;2023-06-10T09:32:21;26.90;99.90
63966;DHT22;50151;52.030;5.350;2023-06-10T09:34:48;27.00;99.90
63966;DHT22;50151;52.030;5.350;2023-06-10T09:37:22;27.10;99.90
63966;DHT22;50151;52.030;5.350;2023-06-10T09:40:08;27.20;99.90
63966;DHT22;50151;52.030;5.350;2023-06-10T09:42:38;27.30;99.90
63966;DHT22;50151;52.030;5.350;2023-06-10T09:45:16;27.40;99.90
63966;DHT22;50151;52.030;5.350;2023-06-10T09:47:45;27.50;99.90
63966;DHT22;50151;52.030;5.350;2023-06-10T09:50:15;27.70;99.90
63966;DHT22;50151;52.030;5.350;2023-06-10T09:52:42;27.70;99.90
63966;DHT22;50151;52.030;5.350;2023-06-10T09:55:11;27.80;99.90
63966;DHT22;50151;52.030;5.350;2023-06-10T09:57:39;27.90;99.90
63966;DHT22;50151;52.030;5.350;2023-06-10T10:00:09;27.90;99.90
63966;DHT22;50151;52.030;5.350;2023-06-10T10:02:50;28.00;99.90
63966;DHT22;50151;52.030;5.350;2023-06-10T10:05:21;27.90;99.90
63966;DHT22;50151;52.030;5.350;2023-06-10T10:07:55;28.20;99.90
63966;DHT22;50151;52.030;5.350;2023-06-10T10:10:23;28.40;99.90
63966;DHT22;50151;52.030;5.350;2023-06-10T10:12:56;28.50;99.90
63966;DHT22;50151;52.030;5.350;2023-06-10T10:15:28;28.60;99.90
63966;DHT22;50151;52.030;5.350;2023-06-10T10:20:29;28.80;99.90
63966;DHT22;50151;52.030;5.350;2023-06-10T10:22:58;28.90;99.90
63966;DHT22;50151;52.030;5.350;2023-06-10T10:25:31;29.00;99.90
63966;DHT22;50151;52.030;5.350;2023-06-10T10:28:23;29.00;99.90
63966;DHT22;50151;52.030;5.350;2023-06-10T10:30:53;29.30;99.90
63966;DHT22;50151;52.030;5.350;2023-06-10T10:33:31;29.30;99.90
63966;DHT22;50151;52.030;5.350;2023-06-10T10:36:00;29.30;99.90
63966;DHT22;50151;52.030;5.350;2023-06-10T10:38:28;29.40;99.90
63966;DHT22;50151;52.030;5.350;2023-06-10T10:40:59;29.50;99.90
63966;DHT22;50151;52.030;5.350;2023-06-10T10:43:28;29.50;99.90
63966;DHT22;50151;52.030;5.350;2023-06-10T10:46:01;29.50;99.90
63966;DHT22;50151;52.030;5.350;2023-06-10T10:48:37;29.70;99.90
63966;DHT22;50151;52.030;5.350;2023-06-10T10:51:05;30.00;99.90
63966;DHT22;50151;52.030;5.350;2023-06-10T10:53:36;29.80;99.90
63966;DHT22;50151;52.030;5.350;2023-06-10T10:56:08;30.10;99.90
63966;DHT22;50151;52.030;5.350;2023-06-10T10:59:01;30.00;99.90
63966;DHT22;50151;52.030;5.350;2023-06-10T11:01:44;30.10;99.90
63966;DHT22;50151;52.030;5.350;2023-06-10T11:04:18;30.40;99.90
63966;DHT22;50151;52.030;5.350;2023-06-10T11:06:53;30.70;99.90
63966;DHT22;50151;52.030;5.350;2023-06-10T11:09:29;30.40;99.90
63966;DHT22;50151;52.030;5.350;2023-06-10T11:11:58;30.50;99.90
63966;DHT22;50151;52.030;5.350;2023-06-10T11:14:34;30.60;99.90
63966;DHT22;50151;52.030;5.350;2023-06-10T11:17:18;30.50;99.90
63966;DHT22;50151;52.030;5.350;2023-06-10T11:19:48;30.80;99.90
63966;DHT22;50151;52.030;5.350;2023-06-10T11:22:21;30.90;99.90
63966;DHT22;50151;52.030;5.350;2023-06-10T11:24:56;31.20;99.90
63966;DHT22;50151;52.030;5.350;2023-06-10T11:27:25;31.10;99.90
63966;DHT22;50151;52.030;5.350;2023-06-10T11:32:31;31.40;99.90
63966;DHT22;50151;52.030;5.350;2023-06-10T11:35:06;31.40;99.90
63966;DHT22;50151;52.030;5.350;2023-06-10T11:37:36;31.50;99.90
63966;DHT22;50151;52.030;5.350;2023-06-10T11:40:08;31.60;99.90
63966;DHT22;50151;52.030;5.350;2023-06-10T11:42:40;31.50;99.90
63966;DHT22;50151;52.030;5.350;2023-06-10T11:45:07;31.60;99.90
63966;DHT22;50151;52.030;5.350;2023-06-10T11:47:36;31.80;99.90
63966;DHT22;50151;52.030;5.350;2023-06-10T11:50:02;31.90;99.90
63966;DHT22;50151;52.030;5.350;2023-06-10T11:52:31;31.60;99.90
63966;DHT22;50151;52.030;5.350;2023-06-10T11:55:00;31.70;99.90
63966;DHT22;50151;52.030;5.350;2023-06-10T11:57:27;31.90;99.90
63966;DHT22;50151;52.030;5.350;2023-06-10T11:59:54;32.20;99.90
63966;DHT22;50151;52.030;5.350;2023-06-10T12:02:21;32.40;99.90
63966;DHT22;50151;52.030;5.350;2023-06-10T12:04:49;32.50;99.90
63966;DHT22;50151;52.030;5.350;2023-06-10T12:07:19;32.60;99.90
63966;DHT22;50151;52.030;5.350;2023-06-10T12:09:46;32.50;99.90
63966;DHT22;50151;52.030;5.350;2023-06-10T12:12:14;32.60;99.90
63966;DHT22;50151;52.030;5.350;2023-06-10T12:14:54;32.60;99.90
63966;DHT22;50151;52.030;5.350;2023-06-10T12:20:06;32.20;99.90
63966;DHT22;50151;52.030;5.350;2023-06-10T12:22:46;32.30;99.90
63966;DHT22;50151;52.030;5.350;2023-06-10T12:25:13;32.40;99.90
63966;DHT22;50151;52.030;5.350;2023-06-10T12:27:51;32.40;99.90
63966;DHT22;50151;52.030;5.350;2023-06-10T12:30:20;32.50;99.90
63966;DHT22;50151;52.030;5.350;2023-06-10T12:32:48;32.50;99.90
63966;DHT22;50151;52.030;5.350;2023-06-10T12:35:22;32.60;99.90
63966;DHT22;50151;52.030;5.350;2023-06-10T12:38:01;32.30;99.90
63966;DHT22;50151;52.030;5.350;2023-06-10T12:40:33;32.80;99.90
63966;DHT22;50151;52.030;5.350;2023-06-10T12:43:01;32.60;99.90
63966;DHT22;50151;52.030;5.350;2023-06-10T12:45:35;32.70;99.90
63966;DHT22;50151;52.030;5.350;2023-06-10T12:48:20;33.40;99.90
63966;DHT22;50151;52.030;5.350;2023-06-10T12:50:55;33.20;99.90
63966;DHT22;50151;52.030;5.350;2023-06-10T12:53:23;33.10;99.90
63966;DHT22;50151;52.030;5.350;2023-06-10T12:55:51;33.30;99.90
63966;DHT22;50151;52.030;5.350;2023-06-10T12:58:22;33.60;99.90
63966;DHT22;50151;52.030;5.350;2023-06-10T13:00:53;34.00;99.90
63966;DHT22;50151;52.030;5.350;2023-06-10T13:03:20;34.20;99.90
63966;DHT22;50151;52.030;5.350;2023-06-10T13:05:49;34.20;99.90
63966;DHT22;50151;52.030;5.350;2023-06-10T13:08:19;34.20;99.90
63966;DHT22;50151;52.030;5.350;2023-06-10T13:10:52;34.30;99.90
63966;DHT22;50151;52.030;5.350;2023-06-10T13:13:19;34.00;99.90
63966;DHT22;50151;52.030;5.350;2023-06-10T13:15:46;34.50;99.90
63966;DHT22;50151;52.030;5.350;2023-06-10T13:18:13;34.80;99.90
63966;DHT22;50151;52.030;5.350;2023-06-10T13:20:56;34.90;99.90
63966;DHT22;50151;52.030;5.350;2023-06-10T13:23:38;34.40;99.90
63966;DHT22;50151;52.030;5.350;2023-06-10T13:26:41;34.60;99.90
63966;DHT22;50151;52.030;5.350;2023-06-10T13:29:09;34.60;99.90
63966;DHT22;50151;52.030;5.350;2023-06-10T13:31:42;34.80;99.90
63966;DHT22;50151;52.030;5.350;2023-06-10T13:34:09;35.00;99.90
63966;DHT22;50151;52.030;5.350;2023-06-10T13:36:40;35.20;99.90
63966;DHT22;50151;52.030;5.350;2023-06-10T13:39:07;35.40;99.90
63966;DHT22;50151;52.030;5.350;2023-06-10T13:41:34;35.00;99.90
63966;DHT22;50151;52.030;5.350;2023-06-10T13:44:02;35.30;99.90
63966;DHT22;50151;52.030;5.350;2023-06-10T13:46:35;35.50;99.90
63966;DHT22;50151;52.030;5.350;2023-06-10T13:49:04;35.10;99.90
63966;DHT22;50151;52.030;5.350;2023-06-10T13:51:31;35.20;99.90
63966;DHT22;50151;52.030;5.350;2023-06-10T13:53:58;35.30;99.90
63966;DHT22;50151;52.030;5.350;2023-06-10T13:56:25;35.40;99.90
63966;DHT22;50151;52.030;5.350;2023-06-10T13:59:03;35.70;99.90
63966;DHT22;50151;52.030;5.350;2023-06-10T14:01:52;35.90;99.90
63966;DHT22;50151;52.030;5.350;2023-06-10T14:04:26;35.80;99.90
63966;DHT22;50151;52.030;5.350;2023-06-10T14:06:57;35.80;99.90
63966;DHT22;50151;52.030;5.350;2023-06-10T14:09:30;35.40;99.90
63966;DHT22;50151;52.030;5.350;2023-06-10T14:12:05;35.70;99.90
63966;DHT22;50151;52.030;5.350;2023-06-10T14:14:32;35.80;99.90
63966;DHT22;50151;52.030;5.350;2023-06-10T14:17:15;35.60;99.90
63966;DHT22;50151;52.030;5.350;2023-06-10T14:19:49;35.70;99.90
63966;DHT22;50151;52.030;5.350;2023-06-10T14:22:21;35.40;99.90
63966;DHT22;50151;52.030;5.350;2023-06-10T14:25:06;35.80;99.90
63966;DHT22;50151;52.030;5.350;2023-06-10T14:27:53;36.40;99.90
63966;DHT22;50151;52.030;5.350;2023-06-10T14:30:37;36.40;99.90
63966;DHT22;50151;52.030;5.350;2023-06-10T14:33:24;36.00;99.90
63966;DHT22;50151;52.030;5.350;2023-06-10T14:36:24;35.60;99.90
63966;DHT22;50151;52.030;5.350;2023-06-10T14:38:55;35.40;99.90
63966;DHT22;50151;52.030;5.350;2023-06-10T14:41:29;35.60;99.90
63966;DHT22;50151;52.030;5.350;2023-06-10T14:43:56;35.60;99.90
63966;DHT22;50151;52.030;5.350;2023-06-10T14:46:23;35.30;99.90
63966;DHT22;50151;52.030;5.350;2023-06-10T14:48:54;35.40;99.90
63966;DHT22;50151;52.030;5.350;2023-06-10T14:51:21;34.90;99.90
63966;DHT22;50151;52.030;5.350;2023-06-10T14:53:48;34.40;99.90
63966;DHT22;50151;52.030;5.350;2023-06-10T14:56:18;34.40;99.90
63966;DHT22;50151;52.030;5.350;2023-06-10T14:58:45;34.20;99.90
63966;DHT22;50151;52.030;5.350;2023-06-10T15:01:12;34.30;99.90
63966;DHT22;50151;52.030;5.350;2023-06-10T15:03:39;34.20;99.90
63966;DHT22;50151;52.030;5.350;2023-06-10T15:06:06;34.30;99.90
63966;DHT22;50151;52.030;5.350;2023-06-10T15:08:33;33.80;99.90
63966;DHT22;50151;52.030;5.350;2023-06-10T15:11:00;33.60;99.90
63966;DHT22;50151;52.030;5.350;2023-06-10T15:13:28;33.70;99.90
63966;DHT22;50151;52.030;5.350;2023-06-10T15:15:55;33.90;99.90
63966;DHT22;50151;52.030;5.350;2023-06-10T15:18:22;34.00;99.90
63966;DHT22;50151;52.030;5.350;2023-06-10T15:20:50;33.70;99.90
63966;DHT22;50151;52.030;5.350;2023-06-10T15:23:17;33.50;99.90
63966;DHT22;50151;52.030;5.350;2023-06-10T15:25:47;33.40;99.90
63966;DHT22;50151;52.030;5.350;2023-06-10T15:28:14;33.40;99.90
63966;DHT22;50151;52.030;5.350;2023-06-10T15:30:41;33.50;99.90
63966;DHT22;50151;52.030;5.350;2023-06-10T15:33:09;33.40;99.90
63966;DHT22;50151;52.030;5.350;2023-06-10T15:35:36;33.20;99.90
63966;DHT22;50151;52.030;5.350;2023-06-10T15:38:03;33.20;99.90
63966;DHT22;50151;52.030;5.350;2023-06-10T15:40:30;33.10;99.90
63966;DHT22;50151;52.030;5.350;2023-06-10T15:42:57;33.30;99.90
63966;DHT22;50151;52.030;5.350;2023-06-10T15:45:34;33.30;99.90
63966;DHT22;50151;52.030;5.350;2023-06-10T15:48:19;33.10;99.90
63966;DHT22;50151;52.030;5.350;2023-06-10T15:51:01;33.10;99.90
63966;DHT22;50151;52.030;5.350;2023-06-10T15:53:34;33.00;99.90
63966;DHT22;50151;52.030;5.350;2023-06-10T15:56:03;33.00;99.90
63966;DHT22;50151;52.030;5.350;2023-06-10T15:58:30;33.10;99.90
63966;DHT22;50151;52.030;5.350;2023-06-10T16:00:57;33.20;99.90
63966;DHT22;50151;52.030;5.350;2023-06-10T16:03:24;33.40;99.90
63966;DHT22;50151;52.030;5.350;2023-06-10T16:05:51;33.00;99.90
63966;DHT22;50151;52.030;5.350;2023-06-10T16:08:18;33.00;99.90
63966;DHT22;50151;52.030;5.350;2023-06-10T16:10:46;33.20;99.90
63966;DHT22;50151;52.030;5.350;2023-06-10T16:13:15;33.30;99.90
63966;DHT22;50151;52.030;5.350;2023-06-10T16:15:43;33.20;99.90
63966;DHT22;50151;52.030;5.350;2023-06-10T16:18:10;33.20;99.90
63966;DHT22;50151;52.030;5.350;2023-06-10T16:20:37;32.80;99.90
63966;DHT22;50151;52.030;5.350;2023-06-10T16:23:04;33.00;99.90
63966;DHT22;50151;52.030;5.350;2023-06-10T16:25:32;33.20;99.90
63966;DHT22;50151;52.030;5.350;2023-06-10T16:28:01;33.20;99.90
63966;DHT22;50151;52.030;5.350;2023-06-10T16:30:29;33.20;99.90
63966;DHT22;50151;52.030;5.350;2023-06-10T16:32:56;33.00;99.90
63966;DHT22;50151;52.030;5.350;2023-06-10T16:35:24;33.20;99.90
63966;DHT22;50151;52.030;5.350;2023-06-10T16:37:52;33.20;99.90
63966;DHT22;50151;52.030;5.350;2023-06-10T16:40:19;33.30;99.90
63966;DHT22;50151;52.030;5.350;2023-06-10T16:42:46;33.20;99.90
63966;DHT22;50151;52.030;5.350;2023-06-10T16:45:13;33.00;99.90
63966;DHT22;50151;52.030;5.350;2023-06-10T16:47:40;33.00;99.90
63966;DHT22;50151;52.030;5.350;2023-06-10T16:50:08;32.80;99.90
63966;DHT22;50151;52.030;5.350;2023-06-10T16:52:35;32.80;99.90
63966;DHT22;50151;52.030;5.350;2023-06-10T16:55:02;32.70;99.90
63966;DHT22;50151;52.030;5.350;2023-06-10T16:57:32;32.50;99.90
63966;DHT22;50151;52.030;5.350;2023-06-10T16:59:59;32.30;99.90
63966;DHT22;50151;52.030;5.350;2023-06-10T17:02:26;32.20;99.90
63966;DHT22;50151;52.030;5.350;2023-06-10T17:04:54;32.20;99.90
63966;DHT22;50151;52.030;5.350;2023-06-10T17:07:23;32.30;99.90
63966;DHT22;50151;52.030;5.350;2023-06-10T17:09:50;32.30;99.90
63966;DHT22;50151;52.030;5.350;2023-06-10T17:12:17;32.10;99.90
63966;DHT22;50151;52.030;5.350;2023-06-10T17:14:44;32.20;99.90
63966;DHT22;50151;52.030;5.350;2023-06-10T17:17:11;32.00;99.90
63966;DHT22;50151;52.030;5.350;2023-06-10T17:19:39;32.10;99.90
63966;DHT22;50151;52.030;5.350;2023-06-10T17:22:06;32.20;99.90
63966;DHT22;50151;52.030;5.350;2023-06-10T17:24:33;32.30;99.90
63966;DHT22;50151;52.030;5.350;2023-06-10T17:27:00;32.20;99.90
63966;DHT22;50151;52.030;5.350;2023-06-10T17:29:27;32.20;99.90
63966;DHT22;50151;52.030;5.350;2023-06-10T17:31:54;32.10;99.90
63966;DHT22;50151;52.030;5.350;2023-06-10T17:34:21;32.10;99.90
63966;DHT22;50151;52.030;5.350;2023-06-10T17:36:47;32.00;99.90
63966;DHT22;50151;52.030;5.350;2023-06-10T17:39:14;32.20;99.90
63966;DHT22;50151;52.030;5.350;2023-06-10T17:41:42;32.30;99.90
63966;DHT22;50151;52.030;5.350;2023-06-10T17:44:09;32.50;99.90
63966;DHT22;50151;52.030;5.350;2023-06-10T17:46:36;32.40;99.90
63966;DHT22;50151;52.030;5.350;2023-06-10T17:49:03;32.20;99.90
63966;DHT22;50151;52.030;5.350;2023-06-10T17:51:30;32.50;99.90
63966;DHT22;50151;52.030;5.350;2023-06-10T17:53:57;32.50;99.90
63966;DHT22;50151;52.030;5.350;2023-06-10T17:56:23;32.60;99.90
63966;DHT22;50151;52.030;5.350;2023-06-10T17:58:51;32.70;99.90
63966;DHT22;50151;52.030;5.350;2023-06-10T18:01:18;32.70;99.90
63966;DHT22;50151;52.030;5.350;2023-06-10T18:03:45;32.80;99.90
63966;DHT22;50151;52.030;5.350;2023-06-10T18:06:12;33.00;99.90
63966;DHT22;50151;52.030;5.350;2023-06-10T18:08:39;33.20;99.90
63966;DHT22;50151;52.030;5.350;2023-06-10T18:11:06;33.20;99.90
63966;DHT22;50151;52.030;5.350;2023-06-10T18:13:33;33.50;99.90
63966;DHT22;50151;52.030;5.350;2023-06-10T18:16:00;33.30;99.90
63966;DHT22;50151;52.030;5.350;2023-06-10T18:18:28;33.50;99.90
63966;DHT22;50151;52.030;5.350;2023-06-10T18:20:56;33.60;99.90
63966;DHT22;50151;52.030;5.350;2023-06-10T18:23:25;33.40;99.90
63966;DHT22;50151;52.030;5.350;2023-06-10T18:25:52;33.10;99.90
63966;DHT22;50151;52.030;5.350;2023-06-10T18:28:19;32.60;99.90
63966;DHT22;50151;52.030;5.350;2023-06-10T18:30:46;32.30;99.90
63966;DHT22;50151;52.030;5.350;2023-06-10T18:33:13;32.50;99.90
63966;DHT22;50151;52.030;5.350;2023-06-10T18:35:40;32.70;99.90
63966;DHT22;50151;52.030;5.350;2023-06-10T18:38:06;32.90;99.90
63966;DHT22;50151;52.030;5.350;2023-06-10T18:40:33;33.00;99.90
63966;DHT22;50151;52.030;5.350;2023-06-10T18:43:00;32.80;99.90
63966;DHT22;50151;52.030;5.350;2023-06-10T18:45:27;32.80;99.90
63966;DHT22;50151;52.030;5.350;2023-06-10T18:47:53;32.50;99.90
63966;DHT22;50151;52.030;5.350;2023-06-10T18:50:24;31.90;99.90
63966;DHT22;50151;52.030;5.350;2023-06-10T18:52:51;31.70;99.90
63966;DHT22;50151;52.030;5.350;2023-06-10T18:55:18;31.50;99.90
63966;DHT22;50151;52.030;5.350;2023-06-10T18:57:45;31.30;99.90
63966;DHT22;50151;52.030;5.350;2023-06-10T19:00:12;31.10;99.90
63966;DHT22;50151;52.030;5.350;2023-06-10T19:02:39;31.00;99.90
63966;DHT22;50151;52.030;5.350;2023-06-10T19:05:08;31.10;99.90
63966;DHT22;50151;52.030;5.350;2023-06-10T19:07:36;31.00;99.90
63966;DHT22;50151;52.030;5.350;2023-06-10T19:10:03;31.20;99.90
63966;DHT22;50151;52.030;5.350;2023-06-10T19:12:30;31.30;99.90
63966;DHT22;50151;52.030;5.350;2023-06-10T19:14:57;30.90;99.90
63966;DHT22;50151;52.030;5.350;2023-06-10T19:17:24;30.60;99.90
63966;DHT22;50151;52.030;5.350;2023-06-10T19:19:50;30.50;99.90
63966;DHT22;50151;52.030;5.350;2023-06-10T19:22:18;30.30;99.90
63966;DHT22;50151;52.030;5.350;2023-06-10T19:24:57;30.10;99.90
63966;DHT22;50151;52.030;5.350;2023-06-10T19:27:24;30.00;99.90
63966;DHT22;50151;52.030;5.350;2023-06-10T19:29:51;29.90;99.90
63966;DHT22;50151;52.030;5.350;2023-06-10T19:32:17;29.80;99.90
63966;DHT22;50151;52.030;5.350;2023-06-10T19:34:44;29.60;99.90
63966;DHT22;50151;52.030;5.350;2023-06-10T19:37:11;29.50;99.90
63966;DHT22;50151;52.030;5.350;2023-06-10T19:39:37;29.40;99.90
63966;DHT22;50151;52.030;5.350;2023-06-10T19:42:04;29.20;99.90
63966;DHT22;50151;52.030;5.350;2023-06-10T19:44:36;29.10;99.90
63966;DHT22;50151;52.030;5.350;2023-06-10T19:47:03;29.00;99.90
63966;DHT22;50151;52.030;5.350;2023-06-10T19:49:29;28.90;99.90
63966;DHT22;50151;52.030;5.350;2023-06-10T19:51:56;28.80;99.90
63966;DHT22;50151;52.030;5.350;2023-06-10T19:54:23;28.60;99.90
63966;DHT22;50151;52.030;5.350;2023-06-10T19:56:50;28.50;99.90
63966;DHT22;50151;52.030;5.350;2023-06-10T19:59:16;28.40;99.90
63966;DHT22;50151;52.030;5.350;2023-06-10T20:01:43;28.30;99.90
63966;DHT22;50151;52.030;5.350;2023-06-10T20:04:10;28.30;99.90
63966;DHT22;50151;52.030;5.350;2023-06-10T20:06:39;28.20;99.90
63966;DHT22;50151;52.030;5.350;2023-06-10T20:09:05;28.10;99.90
63966;DHT22;50151;52.030;5.350;2023-06-10T20:11:32;28.00;99.90
63966;DHT22;50151;52.030;5.350;2023-06-10T20:13:59;27.80;99.90
63966;DHT22;50151;52.030;5.350;2023-06-10T20:16:25;27.80;99.90
63966;DHT22;50151;52.030;5.350;2023-06-10T20:18:52;27.70;99.90
63966;DHT22;50151;52.030;5.350;2023-06-10T20:21:19;27.70;99.90
63966;DHT22;50151;52.030;5.350;2023-06-10T20:23:46;27.60;99.90
63966;DHT22;50151;52.030;5.350;2023-06-10T20:26:13;27.50;99.90
63966;DHT22;50151;52.030;5.350;2023-06-10T20:28:40;27.40;99.90
63966;DHT22;50151;52.030;5.350;2023-06-10T20:31:07;27.30;99.90
63966;DHT22;50151;52.030;5.350;2023-06-10T20:33:33;27.20;99.90
63966;DHT22;50151;52.030;5.350;2023-06-10T20:36:00;27.10;99.90
63966;DHT22;50151;52.030;5.350;2023-06-10T20:38:27;27.00;99.90
63966;DHT22;50151;52.030;5.350;2023-06-10T20:40:54;27.00;99.90
63966;DHT22;50151;52.030;5.350;2023-06-10T20:43:20;26.90;99.90
63966;DHT22;50151;52.030;5.350;2023-06-10T20:45:47;26.80;99.90
63966;DHT22;50151;52.030;5.350;2023-06-10T20:48:15;26.70;99.90
63966;DHT22;50151;52.030;5.350;2023-06-10T20:50:42;26.60;99.90
63966;DHT22;50151;52.030;5.350;2023-06-10T20:53:09;26.70;99.90
63966;DHT22;50151;52.030;5.350;2023-06-10T20:55:36;26.60;99.90
63966;DHT22;50151;52.030;5.350;2023-06-10T20:58:02;26.50;99.90
63966;DHT22;50151;52.030;5.350;2023-06-10T21:00:29;26.40;99.90
63966;DHT22;50151;52.030;5.350;2023-06-10T21:02:56;26.40;99.90
63966;DHT22;50151;52.030;5.350;2023-06-10T21:05:23;26.30;99.90
63966;DHT22;50151;52.030;5.350;2023-06-10T21:07:50;26.20;99.90
63966;DHT22;50151;52.030;5.350;2023-06-10T21:10:17;26.20;99.90
63966;DHT22;50151;52.030;5.350;2023-06-10T21:12:43;26.00;99.90
63966;DHT22;50151;52.030;5.350;2023-06-10T21:15:10;26.10;99.90
63966;DHT22;50151;52.030;5.350;2023-06-10T21:17:37;26.00;99.90
63966;DHT22;50151;52.030;5.350;2023-06-10T21:20:04;25.80;99.90
63966;DHT22;50151;52.030;5.350;2023-06-10T21:22:31;25.80;99.90
63966;DHT22;50151;52.030;5.350;2023-06-10T21:24:58;25.80;99.90
63966;DHT22;50151;52.030;5.350;2023-06-10T21:27:25;25.60;99.90
63966;DHT22;50151;52.030;5.350;2023-06-10T21:29:51;25.60;99.90
63966;DHT22;50151;52.030;5.350;2023-06-10T21:32:18;25.60;99.90
63966;DHT22;50151;52.030;5.350;2023-06-10T21:34:45;25.60;99.90
63966;DHT22;50151;52.030;5.350;2023-06-10T21:37:12;25.50;99.90
63966;DHT22;50151;52.030;5.350;2023-06-10T21:39:38;25.40;99.90
63966;DHT22;50151;52.030;5.350;2023-06-10T21:42:05;25.40;99.90
63966;DHT22;50151;52.030;5.350;2023-06-10T21:44:32;25.30;99.90
63966;DHT22;50151;52.030;5.350;2023-06-10T21:46:59;25.20;99.90
63966;DHT22;50151;52.030;5.350;2023-06-10T21:49:26;25.20;99.90
63966;DHT22;50151;52.030;5.350;2023-06-10T21:51:53;25.20;99.90
63966;DHT22;50151;52.030;5.350;2023-06-10T21:54:19;25.20;99.90
63966;DHT22;50151;52.030;5.350;2023-06-10T21:56:46;25.20;99.90
63966;DHT22;50151;52.030;5.350;2023-06-10T21:59:14;25.10;99.90
63966;DHT22;50151;52.030;5.350;2023-06-10T22:01:41;25.10;99.90
63966;DHT22;50151;52.030;5.350;2023-06-10T22:04:08;25.00;99.90
63966;DHT22;50151;52.030;5.350;2023-06-10T22:06:34;24.90;99.90
63966;DHT22;50151;52.030;5.350;2023-06-10T22:09:03;24.90;99.90
63966;DHT22;50151;52.030;5.350;2023-06-10T22:11:29;24.80;99.90
63966;DHT22;50151;52.030;5.350;2023-06-10T22:13:56;24.80;99.90
63966;DHT22;50151;52.030;5.350;2023-06-10T22:16:23;24.70;99.90
63966;DHT22;50151;52.030;5.350;2023-06-10T22:18:50;24.70;99.90
63966;DHT22;50151;52.030;5.350;2023-06-10T22:21:16;24.70;99.90
63966;DHT22;50151;52.030;5.350;2023-06-10T22:23:43;24.60;99.90
63966;DHT22;50151;52.030;5.350;2023-06-10T22:26:10;24.60;99.90
63966;DHT22;50151;52.030;5.350;2023-06-10T22:28:36;24.60;99.90
63966;DHT22;50151;52.030;5.350;2023-06-10T22:31:04;24.40;99.90
63966;DHT22;50151;52.030;5.350;2023-06-10T22:33:31;24.50;99.90
63966;DHT22;50151;52.030;5.350;2023-06-10T22:35:58;24.40;99.90
63966;DHT22;50151;52.030;5.350;2023-06-10T22:38:24;24.40;99.90
63966;DHT22;50151;52.030;5.350;2023-06-10T22:40:51;24.40;99.90
63966;DHT22;50151;52.030;5.350;2023-06-10T22:43:18;24.30;99.90
63966;DHT22;50151;52.030;5.350;2023-06-10T22:45:44;24.30;99.90
63966;DHT22;50151;52.030;5.350;2023-06-10T22:48:11;24.20;99.90
63966;DHT22;50151;52.030;5.350;2023-06-10T22:50:38;24.30;99.90
63966;DHT22;50151;52.030;5.350;2023-06-10T22:53:05;24.10;99.90
63966;DHT22;50151;52.030;5.350;2023-06-10T22:55:31;24.10;99.90
63966;DHT22;50151;52.030;5.350;2023-06-10T22:57:59;24.00;99.90
63966;DHT22;50151;52.030;5.350;2023-06-10T23:00:26;24.00;99.90
63966;DHT22;50151;52.030;5.350;2023-06-10T23:02:53;23.90;99.90
63966;DHT22;50151;52.030;5.350;2023-06-10T23:05:19;23.90;99.90
63966;DHT22;50151;52.030;5.350;2023-06-10T23:07:46;23.80;99.90
63966;DHT22;50151;52.030;5.350;2023-06-10T23:10:13;23.90;99.90
63966;DHT22;50151;52.030;5.350;2023-06-10T23:12:40;23.80;99.90
63966;DHT22;50151;52.030;5.350;2023-06-10T23:15:07;23.70;99.90
63966;DHT22;50151;52.030;5.350;2023-06-10T23:17:34;23.60;99.90
63966;DHT22;50151;52.030;5.350;2023-06-10T23:20:01;23.60;99.90
63966;DHT22;50151;52.030;5.350;2023-06-10T23:22:28;23.60;99.90
63966;DHT22;50151;52.030;5.350;2023-06-10T23:24:58;23.50;99.90
63966;DHT22;50151;52.030;5.350;2023-06-10T23:27:27;23.60;99.90
63966;DHT22;50151;52.030;5.350;2023-06-10T23:29:54;23.40;99.90
63966;DHT22;50151;52.030;5.350;2023-06-10T23:32:26;23.40;99.90
63966;DHT22;50151;52.030;5.350;2023-06-10T23:34:53;23.40;99.90
63966;DHT22;50151;52.030;5.350;2023-06-10T23:37:20;23.40;99.90
63966;DHT22;50151;52.030;5.350;2023-06-10T23:39:47;23.40;99.90
63966;DHT22;50151;52.030;5.350;2023-06-10T23:42:16;23.40;99.90
63966;DHT22;50151;52.030;5.350;2023-06-10T23:44:42;23.20;99.90
63966;DHT22;50151;52.030;5.350;2023-06-10T23:47:09;23.20;99.90
63966;DHT22;50151;52.030;5.350;2023-06-10T23:49:36;23.20;99.90
63966;DHT22;50151;52.030;5.350;2023-06-10T23:52:03;23.20;99.90
63966;DHT22;50151;52.030;5.350;2023-06-10T23:54:29;23.10;99.90
63966;DHT22;50151;52.030;5.350;2023-06-10T23:56:57;23.10;99.90
63966;DHT22;50151;52.030;5.350;2023-06-10T23:59:25;23.10;99.90
